KTME

Details ICAO KTME
Name Houston Executive
Region United States
Timezone America/Chicago (UTC-5.0)
Plans Departing 24
Arriving 20
Stats Elevation 168 ft / 51 m (AMSL)
Location 29.805020° -95.897887°
Runways 1
Magnetic Variation 2.749° E
Sunrise 2018-05-25 11:27:00 UTC / 2018-05-25 06:27:00 Local
Sunset 2018-05-26 01:16:59 UTC / 2018-05-25 20:16:59 Local
Advertisement - Login to hide

Runways

ID Width Length Bearing (true) Bearing (mag) Surface Threshold Offset Overrun Length
18 98 ft / 30 m 6,617 ft / 2,017 m 179.26° 176.51° Asphalt 0 ft / 0 m 0 ft / 0 m
36 98 ft / 30 m 6,617 ft / 2,017 m 359.26° 356.51° Asphalt 1,558 ft / 475 m 0 ft / 0 m

Map

Weather


0- 5 10 15 20 25 30 35+ Temperature / ° C

Clouds and Precipitation
Forecast for 2018-05-25 12:00 UTC. Updated 2 hours ago

Ground ~20,000 ft ~40,000 ft Winds

METAR

KTME 251315Z AUTO 19005KT 7SM 25/25 A2999 RMK AO2

TAF

Not found

Frequencies

Unicom 122.97 MHz CTAF
Warning: Do not use this data for real-world aviation or navigation. No guarantee of current accuracy is given.